PN00 weather

Public forecast

Using degrees Fahrenheit for public forecast. Weather courtesy of forecast.io.

Closest aviation weather report (METAR) to Crosswinds Airfield

Closest report is Heritage Field, 6.3 nm (11.6 km) S. Retrieved 2020/08/14 10:54 UTC (27 minutes ago):

KPTW 141054Z AUTO 05004KT 4SM BR FEW020 OVC028 22/21 A3005 RMK AO2 SLP170 T02170206

Closest aviation forecast (TAF) to Crosswinds Airfield

Closest forecast is Reading Regional Carl A Spaatz Field, 18.1 nm (33.5 km) W. Retrieved 2020/08/14 06:24 UTC (5 hours ago):

TAF KRDG 140521Z 1406/1506 VRB03KT P6SM SCT012 TEMPO 1408/1412 3SM BR BKN012 FM141300 04006KT P6SM BKN035 FM142000 06006KT P6SM SCT045 FM150000 VRB03KT P6SM SCT250